createdAt,value
2019-05-29T00:00:19.411Z,39.16
2019-05-29T00:01:21.720Z,39.16
2019-05-29T00:02:19.408Z,39.64
2019-05-29T00:03:19.380Z,39.48
2019-05-29T00:04:19.279Z,39.32
2019-05-29T00:05:19.384Z,38.99
2019-05-29T00:06:19.409Z,38.99
2019-05-29T00:07:19.319Z,39.32
2019-05-29T00:08:19.258Z,39.16
2019-05-29T00:09:19.333Z,39.16
2019-05-29T00:10:19.323Z,39.48
2019-05-29T00:11:19.383Z,39.16
2019-05-29T00:12:21.143Z,42.38
2019-05-29T00:13:19.296Z,39.16
2019-05-29T00:14:26.910Z,38.99
2019-05-29T00:15:20.218Z,39.80
2019-05-29T00:16:19.234Z,39.16
2019-05-29T00:17:19.303Z,38.99
2019-05-29T00:18:19.282Z,38.99
2019-05-29T00:19:19.195Z,38.99
2019-05-29T00:20:19.265Z,38.99
2019-05-29T00:21:19.201Z,39.16
2019-05-29T00:22:19.241Z,39.16
2019-05-29T00:23:19.151Z,38.83
2019-05-29T00:24:19.153Z,38.99
2019-05-29T00:25:19.154Z,38.99
2019-05-29T00:26:19.230Z,38.99
2019-05-29T00:27:19.140Z,39.16
2019-05-29T00:28:19.202Z,39.32
2019-05-29T00:29:19.216Z,38.99
2019-05-29T00:30:19.233Z,39.32
2019-05-29T00:31:19.222Z,39.16
2019-05-29T00:32:19.176Z,38.99
2019-05-29T00:33:19.193Z,39.16
2019-05-29T00:34:19.193Z,40.44
2019-05-29T00:35:19.103Z,39.32
2019-05-29T00:36:19.100Z,38.99
2019-05-29T00:37:19.121Z,40.44
2019-05-29T00:38:19.188Z,38.83
2019-05-29T00:39:19.130Z,39.16
2019-05-29T00:40:19.050Z,39.16
2019-05-29T00:41:19.131Z,38.99
2019-05-29T00:42:19.131Z,39.32
2019-05-29T00:43:19.125Z,39.32
2019-05-29T00:44:33.523Z,38.67
2019-05-29T00:45:20.069Z,39.16
2019-05-29T00:46:19.122Z,38.99
2019-05-29T00:47:19.098Z,39.16
2019-05-29T00:48:19.112Z,39.16
2019-05-29T00:49:19.133Z,38.99
2019-05-29T00:50:19.083Z,38.83
2019-05-29T00:51:19.073Z,38.83
2019-05-29T00:52:19.081Z,38.99
2019-05-29T00:53:19.018Z,38.83
2019-05-29T00:54:19.081Z,38.83
2019-05-29T00:55:19.078Z,38.83
2019-05-29T00:56:19.058Z,38.83
2019-05-29T00:57:19.114Z,38.67
2019-05-29T00:58:19.789Z,38.83
2019-05-29T00:59:19.256Z,38.83
2019-05-29T01:00:19.472Z,41.89
2019-05-29T01:01:20.084Z,38.67
2019-05-29T01:02:19.819Z,38.51
2019-05-29T01:03:19.789Z,38.67
2019-05-29T01:04:20.044Z,40.28
2019-05-29T01:05:20.056Z,38.51
2019-05-29T01:06:20.146Z,38.83
2019-05-29T01:07:18.972Z,38.99
2019-05-29T01:08:19.007Z,38.83
2019-05-29T01:09:18.957Z,38.99
2019-05-29T01:10:19.018Z,39.32
2019-05-29T01:11:18.967Z,38.51
2019-05-29T01:12:19.218Z,38.67
2019-05-29T01:13:19.238Z,38.67
2019-05-29T01:14:19.380Z,39.16
2019-05-29T01:15:19.562Z,39.32
2019-05-29T01:16:19.621Z,38.99
2019-05-29T01:17:19.806Z,39.16
2019-05-29T01:18:20.005Z,38.83
2019-05-29T01:19:20.159Z,40.61
2019-05-29T01:20:19.918Z,39.16
2019-05-29T01:21:20.077Z,39.64
2019-05-29T01:22:18.795Z,39.16
2019-05-29T01:23:18.894Z,39.96
2019-05-29T01:24:18.874Z,39.48
2019-05-29T01:25:18.904Z,38.67
2019-05-29T01:26:18.757Z,41.89
2019-05-29T01:27:18.892Z,38.83
2019-05-29T01:28:18.989Z,38.67
2019-05-29T01:29:19.458Z,38.83
2019-05-29T01:30:19.367Z,41.73
2019-05-29T01:31:19.369Z,38.83
2019-05-29T01:32:19.556Z,39.16
2019-05-29T01:33:20.491Z,38.67
2019-05-29T01:34:19.779Z,38.83
2019-05-29T01:35:19.997Z,38.67
2019-05-29T01:36:19.981Z,38.83
2019-05-29T01:37:18.792Z,38.67
2019-05-29T01:38:19.276Z,38.67
2019-05-29T01:39:19.355Z,39.16
2019-05-29T01:40:24.420Z,39.16
2019-05-29T01:41:19.781Z,39.32
2019-05-29T01:42:19.468Z,38.83
2019-05-29T01:43:19.317Z,39.16
2019-05-29T01:44:19.316Z,38.99
2019-05-29T01:45:19.441Z,38.99
2019-05-29T01:46:19.489Z,39.16
2019-05-29T01:47:19.423Z,44.31
2019-05-29T01:48:19.573Z,40.61
2019-05-29T01:49:19.625Z,38.83
2019-05-29T01:50:19.605Z,38.83
2019-05-29T01:51:19.520Z,38.51
2019-05-29T01:52:19.666Z,38.99
2019-05-29T01:53:19.557Z,38.83
2019-05-29T01:54:19.745Z,38.83
2019-05-29T01:55:19.756Z,39.96
2019-05-29T01:56:19.776Z,38.99
2019-05-29T01:57:19.651Z,39.16
2019-05-29T01:58:20.330Z,38.99
2019-05-29T01:59:19.721Z,39.16
2019-05-29T02:00:19.904Z,38.83
2019-05-29T02:01:19.813Z,39.32
2019-05-29T02:02:19.828Z,38.99
2019-05-29T02:03:19.783Z,39.16
2019-05-29T02:04:19.766Z,40.12
2019-05-29T02:05:19.852Z,46.57
2019-05-29T02:06:19.882Z,39.16
2019-05-29T02:07:19.881Z,39.16
2019-05-29T02:08:18.578Z,38.83
2019-05-29T02:09:18.575Z,38.99
2019-05-29T02:10:18.502Z,39.32
2019-05-29T02:11:19.185Z,39.48
2019-05-29T02:12:19.686Z,39.48
2019-05-29T02:13:19.448Z,39.16
2019-05-29T02:14:18.553Z,38.99
2019-05-29T02:15:27.002Z,38.83
2019-05-29T02:16:20.592Z,38.67
2019-05-29T02:17:19.612Z,39.32
2019-05-29T02:18:18.834Z,38.83
2019-05-29T02:19:19.856Z,39.32
2019-05-29T02:20:18.974Z,38.99
2019-05-29T02:21:18.480Z,38.99
2019-05-29T02:22:18.903Z,38.99
2019-05-29T02:23:18.489Z,38.83
2019-05-29T02:24:19.032Z,38.83
2019-05-29T02:25:19.631Z,38.83
2019-05-29T02:26:18.481Z,38.99
2019-05-29T02:27:19.450Z,38.83
2019-05-29T02:28:18.541Z,38.99
2019-05-29T02:29:18.760Z,38.67
2019-05-29T02:30:20.357Z,43.51
2019-05-29T02:31:19.637Z,43.34
2019-05-29T02:32:19.643Z,39.16
2019-05-29T02:33:19.588Z,38.67
2019-05-29T02:34:19.865Z,39.80
2019-05-29T02:35:20.113Z,39.16
2019-05-29T02:36:20.223Z,39.32
2019-05-29T02:37:19.954Z,39.32
2019-05-29T02:38:18.533Z,39.32
2019-05-29T02:39:18.854Z,38.51
2019-05-29T02:40:18.946Z,38.83
2019-05-29T02:41:19.125Z,39.64
2019-05-29T02:42:18.697Z,39.48
2019-05-29T02:43:19.209Z,38.51
2019-05-29T02:44:19.157Z,40.28
2019-05-29T02:45:19.474Z,38.83
2019-05-29T02:46:19.458Z,41.25
2019-05-29T02:47:19.358Z,38.99
2019-05-29T02:48:18.257Z,39.32
2019-05-29T02:49:19.860Z,38.67
2019-05-29T02:50:19.827Z,38.99
2019-05-29T02:51:19.617Z,39.16
2019-05-29T02:52:19.982Z,46.89
2019-05-29T02:53:19.928Z,41.89
2019-05-29T02:54:18.205Z,40.12
2019-05-29T02:55:18.311Z,38.99
2019-05-29T02:56:18.345Z,38.83
2019-05-29T02:57:18.296Z,38.83
2019-05-29T02:58:18.219Z,40.12
2019-05-29T02:59:18.278Z,38.99
2019-05-29T03:00:18.204Z,39.16
2019-05-29T03:01:18.177Z,44.47
2019-05-29T03:02:18.251Z,39.64
2019-05-29T03:03:18.248Z,38.99
2019-05-29T03:04:18.201Z,38.99
2019-05-29T03:05:18.127Z,38.99
2019-05-29T03:06:18.280Z,38.99
2019-05-29T03:07:18.241Z,42.70
2019-05-29T03:08:18.164Z,38.83
2019-05-29T03:09:18.170Z,38.99
2019-05-29T03:10:18.227Z,39.64
2019-05-29T03:11:18.232Z,39.48
2019-05-29T03:12:18.132Z,38.99
2019-05-29T03:13:18.128Z,40.12
2019-05-29T03:14:18.189Z,38.99
2019-05-29T03:15:18.218Z,39.16
2019-05-29T03:16:18.181Z,38.99
2019-05-29T03:17:18.110Z,40.12
2019-05-29T03:18:18.154Z,38.99
2019-05-29T03:19:18.157Z,39.32
2019-05-29T03:20:18.171Z,39.64
2019-05-29T03:21:18.160Z,40.28
2019-05-29T03:22:18.082Z,39.48
2019-05-29T03:23:18.206Z,38.99
2019-05-29T03:24:18.139Z,39.32
2019-05-29T03:25:18.128Z,39.16
2019-05-29T03:26:18.141Z,39.96
2019-05-29T03:27:18.176Z,39.32
2019-05-29T03:28:18.112Z,38.83
2019-05-29T03:29:18.009Z,39.16
2019-05-29T03:30:18.175Z,40.61
2019-05-29T03:31:18.044Z,40.44
2019-05-29T03:32:18.067Z,40.44
2019-05-29T03:33:18.101Z,39.64
2019-05-29T03:34:18.109Z,40.44
2019-05-29T03:35:18.109Z,39.64
2019-05-29T03:36:18.032Z,39.64
2019-05-29T03:37:18.077Z,40.12
2019-05-29T03:38:18.066Z,40.61
2019-05-29T03:39:18.062Z,40.12
2019-05-29T03:40:18.046Z,41.73
2019-05-29T03:41:17.969Z,42.06
2019-05-29T03:42:18.021Z,39.16
2019-05-29T03:43:18.034Z,40.12
2019-05-29T03:44:18.010Z,42.38
2019-05-29T03:45:18.010Z,40.61
2019-05-29T03:46:30.158Z,52.85
2019-05-29T03:47:19.012Z,41.89
2019-05-29T03:48:17.897Z,39.32
2019-05-29T03:49:17.970Z,44.79
2019-05-29T03:50:17.926Z,43.34
2019-05-29T03:51:17.887Z,40.12
2019-05-29T03:52:17.978Z,39.96
2019-05-29T03:53:17.985Z,41.25
2019-05-29T03:54:18.035Z,40.93
2019-05-29T03:55:17.952Z,40.28
2019-05-29T03:56:17.985Z,39.64
2019-05-29T03:57:17.953Z,42.70
2019-05-29T03:58:17.922Z,42.38
2019-05-29T03:59:17.943Z,40.44
2019-05-29T04:00:17.896Z,39.96
2019-05-29T04:01:17.932Z,40.28
2019-05-29T04:02:17.904Z,39.48
2019-05-29T04:03:17.906Z,40.93
2019-05-29T04:04:17.844Z,40.44
2019-05-29T04:05:17.859Z,40.12
2019-05-29T04:06:17.812Z,40.61
2019-05-29T04:07:17.917Z,39.96
2019-05-29T04:08:17.855Z,48.02
2019-05-29T04:09:17.823Z,39.32
2019-05-29T04:10:17.830Z,40.77
2019-05-29T04:11:17.829Z,39.80
2019-05-29T04:12:19.099Z,41.73
2019-05-29T04:13:17.845Z,46.08
2019-05-29T04:14:17.729Z,40.61
2019-05-29T04:15:17.721Z,39.96
2019-05-29T04:16:17.788Z,41.57
2019-05-29T04:17:17.873Z,40.93
2019-05-29T04:18:19.706Z,42.38
2019-05-29T04:19:17.795Z,40.28
2019-05-29T04:20:17.789Z,39.96
2019-05-29T04:21:17.792Z,46.57
2019-05-29T04:22:17.814Z,40.77
2019-05-29T04:23:17.666Z,41.57
2019-05-29T04:24:17.719Z,41.57
2019-05-29T04:25:17.666Z,43.83
2019-05-29T04:26:17.687Z,39.96
2019-05-29T04:27:17.688Z,39.80
2019-05-29T04:28:17.733Z,40.12
2019-05-29T04:29:17.781Z,39.80
2019-05-29T04:30:17.735Z,40.12
2019-05-29T04:31:17.661Z,40.12
2019-05-29T04:32:17.736Z,39.64
2019-05-29T04:33:17.661Z,39.32
2019-05-29T04:34:17.715Z,40.28
2019-05-29T04:35:17.700Z,40.12
2019-05-29T04:36:17.712Z,42.38
2019-05-29T04:37:17.663Z,41.09
2019-05-29T04:38:17.601Z,39.96
2019-05-29T04:39:17.666Z,41.73
2019-05-29T04:40:17.713Z,40.61
2019-05-29T04:41:17.640Z,39.96
2019-05-29T04:42:17.650Z,41.25
2019-05-29T04:43:17.657Z,45.76
2019-05-29T04:44:17.605Z,40.77
2019-05-29T04:45:17.546Z,40.93
2019-05-29T04:46:17.628Z,40.93
2019-05-29T04:47:17.623Z,43.02
2019-05-29T04:48:17.630Z,40.77
2019-05-29T04:49:20.181Z,43.83
2019-05-29T04:50:17.624Z,39.80
2019-05-29T04:51:17.611Z,42.38
2019-05-29T04:52:17.636Z,40.28
2019-05-29T04:53:17.634Z,39.96
2019-05-29T04:54:17.582Z,40.28
2019-05-29T04:55:17.489Z,43.83
2019-05-29T04:56:17.572Z,41.09
2019-05-29T04:57:17.560Z,41.41
2019-05-29T04:58:17.594Z,40.12
2019-05-29T04:59:17.564Z,47.37
2019-05-29T05:00:17.464Z,40.44
2019-05-29T05:01:17.464Z,41.41
2019-05-29T05:02:17.536Z,40.12
2019-05-29T05:03:17.490Z,40.12
2019-05-29T05:04:17.509Z,40.28
2019-05-29T05:05:19.541Z,39.80
2019-05-29T05:06:17.412Z,44.96
2019-05-29T05:07:17.512Z,39.80
2019-05-29T05:08:17.528Z,40.12
2019-05-29T05:09:17.464Z,41.41
2019-05-29T05:10:17.437Z,45.28
2019-05-29T05:11:17.541Z,41.41
2019-05-29T05:12:17.469Z,40.93
2019-05-29T05:13:17.534Z,41.41
2019-05-29T05:14:17.468Z,45.60
2019-05-29T05:15:17.545Z,48.98
2019-05-29T05:16:17.467Z,40.93
2019-05-29T05:17:26.278Z,43.51
2019-05-29T05:18:18.435Z,42.22
2019-05-29T05:19:17.435Z,40.61
2019-05-29T05:20:17.352Z,41.41
2019-05-29T05:21:17.428Z,42.38
2019-05-29T05:22:17.417Z,42.38
2019-05-29T05:23:17.465Z,40.28
2019-05-29T05:24:17.418Z,40.93
2019-05-29T05:25:17.533Z,40.44
2019-05-29T05:26:17.422Z,40.61
2019-05-29T05:27:17.407Z,40.28
2019-05-29T05:28:17.405Z,40.44
2019-05-29T05:29:17.388Z,40.61
2019-05-29T05:30:17.400Z,42.86
2019-05-29T05:31:17.376Z,40.44
2019-05-29T05:32:17.367Z,40.44
2019-05-29T05:33:17.380Z,44.15
2019-05-29T05:34:17.413Z,39.96
2019-05-29T05:35:17.350Z,40.61
2019-05-29T05:36:17.361Z,44.96
2019-05-29T05:37:17.242Z,40.61
2019-05-29T05:38:17.385Z,40.12
2019-05-29T05:39:17.352Z,40.12
2019-05-29T05:40:17.293Z,40.93
2019-05-29T05:41:17.347Z,43.02
2019-05-29T05:42:17.378Z,44.63
2019-05-29T05:43:24.168Z,42.06
2019-05-29T05:44:18.363Z,41.89
2019-05-29T05:45:17.302Z,41.73
2019-05-29T05:46:17.299Z,44.79
2019-05-29T05:47:17.292Z,41.89
2019-05-29T05:48:17.339Z,40.93
2019-05-29T05:49:17.214Z,43.18
2019-05-29T05:50:17.266Z,42.86
2019-05-29T05:51:17.234Z,40.61
2019-05-29T05:52:17.224Z,40.28
2019-05-29T05:53:17.244Z,41.41
2019-05-29T05:54:17.262Z,43.83
2019-05-29T05:55:17.222Z,39.80
2019-05-29T05:56:17.188Z,40.93
2019-05-29T05:57:17.237Z,39.96
2019-05-29T05:58:17.113Z,39.80
2019-05-29T05:59:17.155Z,40.61
2019-05-29T06:00:17.250Z,40.12
2019-05-29T06:01:17.225Z,41.89
2019-05-29T06:02:17.094Z,41.09
2019-05-29T06:03:17.099Z,39.80
2019-05-29T06:04:17.174Z,39.96
2019-05-29T06:05:17.234Z,40.28
2019-05-29T06:06:17.169Z,41.89
2019-05-29T06:07:17.082Z,39.48
2019-05-29T06:08:17.180Z,39.96
2019-05-29T06:09:17.255Z,40.61
2019-05-29T06:10:17.161Z,41.09
2019-05-29T06:11:17.169Z,40.44
2019-05-29T06:12:17.150Z,39.96
2019-05-29T06:13:17.170Z,39.48
2019-05-29T06:14:17.164Z,41.41
2019-05-29T06:15:17.142Z,39.64
2019-05-29T06:16:17.040Z,42.70
2019-05-29T06:17:17.125Z,43.99
2019-05-29T06:18:21.672Z,39.64
2019-05-29T06:19:17.162Z,40.61
2019-05-29T06:20:17.005Z,41.89
2019-05-29T06:21:17.107Z,43.34
2019-05-29T06:22:17.091Z,39.80
2019-05-29T06:23:17.070Z,40.28
2019-05-29T06:24:17.065Z,40.12
2019-05-29T06:25:17.067Z,41.25
2019-05-29T06:26:17.064Z,40.12
2019-05-29T06:27:17.062Z,43.02
2019-05-29T06:28:17.053Z,41.09
2019-05-29T06:29:17.061Z,48.66
2019-05-29T06:30:17.085Z,44.31
2019-05-29T06:31:16.994Z,42.70
2019-05-29T06:32:17.057Z,40.28
2019-05-29T06:33:16.985Z,42.70
2019-05-29T06:34:17.056Z,40.61
2019-05-29T06:35:17.035Z,40.77
2019-05-29T06:36:16.969Z,43.51
2019-05-29T06:37:16.989Z,41.25
2019-05-29T06:38:17.006Z,41.89
2019-05-29T06:39:16.995Z,40.93
2019-05-29T06:40:17.093Z,40.77
2019-05-29T06:41:17.048Z,40.77
2019-05-29T06:42:16.979Z,40.28
2019-05-29T06:43:16.994Z,40.44
2019-05-29T06:44:16.992Z,41.41
2019-05-29T06:45:17.041Z,42.38
2019-05-29T06:46:16.986Z,40.44
2019-05-29T06:47:16.981Z,40.28
2019-05-29T06:48:16.990Z,41.57
2019-05-29T06:49:17.088Z,41.57
2019-05-29T06:50:16.988Z,41.25
2019-05-29T06:51:16.849Z,41.57
2019-05-29T06:52:16.928Z,42.38
2019-05-29T06:53:16.948Z,41.09
2019-05-29T06:54:16.931Z,42.22
2019-05-29T06:55:16.947Z,41.41
2019-05-29T06:56:17.386Z,41.09
2019-05-29T06:57:16.906Z,41.89
2019-05-29T06:58:16.885Z,47.53
2019-05-29T06:59:16.810Z,41.57
2019-05-29T07:00:33.990Z,41.41
2019-05-29T07:01:17.875Z,40.28
2019-05-29T07:02:16.808Z,40.93
2019-05-29T07:03:16.889Z,48.18
2019-05-29T07:04:16.842Z,62.84
2019-05-29T07:05:16.854Z,44.31
2019-05-29T07:06:16.856Z,41.41
2019-05-29T07:07:16.926Z,40.44
2019-05-29T07:08:24.113Z,41.41
2019-05-29T07:09:17.869Z,41.09
2019-05-29T07:10:16.740Z,40.77
2019-05-29T07:11:16.797Z,42.22
2019-05-29T07:12:16.806Z,45.92
2019-05-29T07:13:16.726Z,42.22
2019-05-29T07:14:16.789Z,40.77
2019-05-29T07:15:16.832Z,40.77
2019-05-29T07:16:16.786Z,41.09
2019-05-29T07:17:16.755Z,44.31
2019-05-29T07:18:16.750Z,41.57
2019-05-29T07:19:34.150Z,40.93
2019-05-29T07:20:17.969Z,40.61
2019-05-29T07:21:16.791Z,44.31
2019-05-29T07:22:17.812Z,41.09
2019-05-29T07:23:17.893Z,43.34
2019-05-29T07:24:17.840Z,45.60
2019-05-29T07:25:17.869Z,40.61
2019-05-29T07:26:17.807Z,41.09
2019-05-29T07:27:17.884Z,40.28
2019-05-29T07:28:17.906Z,42.38
2019-05-29T07:29:17.840Z,40.61
2019-05-29T07:30:17.862Z,43.51
2019-05-29T07:31:17.812Z,42.86
2019-05-29T07:32:17.862Z,40.93
2019-05-29T07:33:18.057Z,40.77
2019-05-29T07:34:17.894Z,40.93
2019-05-29T07:35:17.822Z,42.38
2019-05-29T07:36:17.852Z,40.44
2019-05-29T07:37:17.837Z,43.34
2019-05-29T07:38:17.870Z,44.31
2019-05-29T07:39:18.804Z,43.51
2019-05-29T07:40:17.797Z,41.89
2019-05-29T07:41:17.853Z,45.12
2019-05-29T07:42:17.861Z,40.93
2019-05-29T07:43:17.744Z,41.25
2019-05-29T07:44:17.810Z,43.83
2019-05-29T07:45:17.797Z,41.41
2019-05-29T07:46:17.802Z,40.93
2019-05-29T07:47:17.733Z,44.15
2019-05-29T07:48:17.765Z,44.63
2019-05-29T07:49:17.751Z,43.83
2019-05-29T07:50:17.753Z,41.41
2019-05-29T07:51:17.729Z,42.22
2019-05-29T07:52:17.660Z,41.25
2019-05-29T07:53:17.687Z,40.77
2019-05-29T07:54:17.697Z,43.99
2019-05-29T07:55:17.701Z,45.92
2019-05-29T07:56:22.770Z,41.41
2019-05-29T07:57:19.681Z,40.93
2019-05-29T07:58:17.701Z,42.38
2019-05-29T07:59:17.634Z,40.93
2019-05-29T08:00:17.436Z,40.77
2019-05-29T08:01:17.652Z,41.09
2019-05-29T08:02:17.656Z,44.31
2019-05-29T08:03:17.649Z,43.02
2019-05-29T08:04:17.641Z,41.57
2019-05-29T08:05:17.619Z,43.18
2019-05-29T08:06:17.608Z,43.34
2019-05-29T08:07:17.586Z,42.70
2019-05-29T08:08:17.619Z,40.77
2019-05-29T08:09:17.611Z,41.41
2019-05-29T08:10:17.560Z,40.93
2019-05-29T08:11:17.617Z,41.57
2019-05-29T08:12:17.596Z,41.89
2019-05-29T08:13:17.592Z,41.09
2019-05-29T08:14:17.617Z,41.25
2019-05-29T08:15:17.586Z,46.41
2019-05-29T08:16:17.538Z,41.41
2019-05-29T08:17:17.603Z,41.57
2019-05-29T08:18:17.521Z,40.93
2019-05-29T08:19:17.567Z,43.51
2019-05-29T08:20:17.558Z,41.57
2019-05-29T08:21:17.503Z,42.06
2019-05-29T08:22:33.380Z,40.93
2019-05-29T08:23:19.517Z,41.89
2019-05-29T08:24:17.520Z,41.09
2019-05-29T08:25:17.571Z,41.25
2019-05-29T08:26:17.595Z,41.57
2019-05-29T08:27:17.502Z,41.73
2019-05-29T08:28:17.484Z,41.09
2019-05-29T08:29:17.519Z,41.57
2019-05-29T08:30:17.489Z,40.93
2019-05-29T08:31:17.534Z,41.57
2019-05-29T08:32:17.458Z,64.45
2019-05-29T08:33:17.379Z,42.06
2019-05-29T08:34:17.483Z,42.06
2019-05-29T08:35:17.433Z,41.41
2019-05-29T08:36:17.471Z,45.76
2019-05-29T08:37:17.493Z,43.51
2019-05-29T08:38:17.471Z,46.08
2019-05-29T08:39:33.616Z,41.57
2019-05-29T08:40:19.472Z,41.25
2019-05-29T08:41:17.449Z,41.25
2019-05-29T08:42:23.274Z,43.34
2019-05-29T08:43:19.442Z,41.09
2019-05-29T08:44:17.423Z,41.41
2019-05-29T08:45:17.406Z,41.89
2019-05-29T08:46:17.423Z,41.89
2019-05-29T08:47:17.313Z,41.89
2019-05-29T08:48:17.373Z,41.89
2019-05-29T08:49:17.392Z,41.73
2019-05-29T08:50:19.127Z,43.18
2019-05-29T08:51:18.271Z,44.79
2019-05-29T08:52:17.353Z,41.57
2019-05-29T08:53:17.393Z,41.41
2019-05-29T08:54:23.784Z,41.25
2019-05-29T08:55:19.321Z,41.89
2019-05-29T08:56:17.333Z,41.89
2019-05-29T08:57:17.338Z,41.25
2019-05-29T08:58:17.343Z,41.41
2019-05-29T08:59:17.339Z,41.89
2019-05-29T09:00:17.350Z,43.18
2019-05-29T09:01:17.246Z,41.57
2019-05-29T09:02:17.285Z,41.89
2019-05-29T09:03:17.239Z,45.12
2019-05-29T09:04:17.311Z,41.09
2019-05-29T09:05:17.268Z,41.41
2019-05-29T09:06:17.273Z,41.25
2019-05-29T09:07:17.283Z,41.25
2019-05-29T09:08:17.296Z,42.06
2019-05-29T09:09:17.311Z,41.89
2019-05-29T09:10:17.284Z,47.37
2019-05-29T09:11:17.295Z,41.25
2019-05-29T09:12:17.222Z,41.41
2019-05-29T09:13:17.244Z,42.54
2019-05-29T09:14:17.185Z,41.25
2019-05-29T09:15:21.020Z,41.25
2019-05-29T09:16:18.228Z,41.41
2019-05-29T09:17:18.415Z,41.41
2019-05-29T09:18:17.197Z,41.41
2019-05-29T09:19:18.857Z,40.93
2019-05-29T09:20:34.723Z,41.41
2019-05-29T09:21:19.268Z,42.86
2019-05-29T09:22:17.239Z,41.09
2019-05-29T09:23:17.162Z,44.31
2019-05-29T09:24:17.563Z,45.44
2019-05-29T09:25:19.109Z,41.57
2019-05-29T09:26:22.124Z,42.06
2019-05-29T09:27:19.268Z,44.79
2019-05-29T09:28:18.666Z,40.93
2019-05-29T09:29:20.226Z,42.70
2019-05-29T09:30:20.120Z,41.09
2019-05-29T09:31:18.669Z,41.57
2019-05-29T09:32:24.816Z,41.41
2019-05-29T09:33:21.331Z,42.86
2019-05-29T09:34:18.765Z,41.09
2019-05-29T09:35:19.686Z,41.41
2019-05-29T09:36:18.787Z,42.86
2019-05-29T09:37:17.759Z,44.47
2019-05-29T09:38:18.809Z,45.44
2019-05-29T09:39:18.408Z,41.57
2019-05-29T09:40:17.157Z,44.47
2019-05-29T09:41:19.003Z,42.22
2019-05-29T09:42:18.531Z,41.09
2019-05-29T09:43:18.199Z,41.25
2019-05-29T09:44:31.368Z,41.89
2019-05-29T09:45:19.543Z,41.41
2019-05-29T09:46:18.822Z,42.06
2019-05-29T09:47:19.010Z,42.86
2019-05-29T09:48:20.322Z,41.89
2019-05-29T09:49:20.199Z,41.25
2019-05-29T09:50:18.749Z,42.06
2019-05-29T09:51:21.539Z,42.22
2019-05-29T09:52:17.973Z,41.73
2019-05-29T09:53:16.992Z,40.93
2019-05-29T09:54:17.042Z,41.89
2019-05-29T09:55:17.016Z,42.06
2019-05-29T09:56:16.991Z,41.41
2019-05-29T09:57:16.957Z,41.89
2019-05-29T09:58:17.003Z,41.89
2019-05-29T09:59:16.900Z,41.57
2019-05-29T10:00:17.005Z,41.73
2019-05-29T10:01:23.435Z,43.67
2019-05-29T10:02:18.936Z,42.06
2019-05-29T10:03:16.913Z,42.70
2019-05-29T10:04:16.889Z,41.89
2019-05-29T10:05:16.946Z,43.83
2019-05-29T10:06:16.915Z,42.54
2019-05-29T10:07:16.916Z,41.89
2019-05-29T10:08:17.152Z,43.02
2019-05-29T10:09:17.958Z,41.25
2019-05-29T10:10:16.819Z,41.57
2019-05-29T10:11:16.947Z,42.38
2019-05-29T10:12:16.923Z,42.22
2019-05-29T10:13:16.886Z,42.22
2019-05-29T10:14:16.900Z,41.57
2019-05-29T10:15:16.801Z,41.41
2019-05-29T10:16:16.942Z,41.09
2019-05-29T10:17:16.810Z,42.38
2019-05-29T10:18:31.481Z,42.86
2019-05-29T10:19:18.867Z,41.57
2019-05-29T10:20:16.909Z,41.73
2019-05-29T10:21:16.863Z,43.99
2019-05-29T10:22:16.802Z,44.63
2019-05-29T10:23:19.943Z,41.41
2019-05-29T10:24:16.813Z,48.02
2019-05-29T10:25:16.832Z,42.38
2019-05-29T10:26:16.805Z,41.25
2019-05-29T10:27:16.834Z,41.25
2019-05-29T10:28:16.854Z,41.09
2019-05-29T10:29:16.799Z,41.41
2019-05-29T10:30:17.781Z,41.09
2019-05-29T10:31:16.719Z,41.57
2019-05-29T10:32:16.750Z,44.31
2019-05-29T10:33:16.785Z,43.02
2019-05-29T10:34:16.833Z,40.44
2019-05-29T10:35:16.675Z,40.93
2019-05-29T10:36:16.761Z,41.25
2019-05-29T10:37:18.200Z,40.93
2019-05-29T10:38:17.787Z,42.54
2019-05-29T10:39:16.736Z,41.25
2019-05-29T10:40:16.739Z,45.12
2019-05-29T10:41:16.658Z,41.09
2019-05-29T10:42:20.517Z,46.57
2019-05-29T10:43:33.038Z,44.31
2019-05-29T10:44:18.744Z,43.99
2019-05-29T10:45:16.649Z,41.89
2019-05-29T10:46:16.668Z,41.57
2019-05-29T10:47:16.676Z,41.09
2019-05-29T10:48:16.662Z,40.77
2019-05-29T10:49:16.685Z,41.41
2019-05-29T10:50:16.651Z,41.57
2019-05-29T10:51:16.640Z,40.61
2019-05-29T10:52:17.612Z,40.44
2019-05-29T10:53:17.557Z,41.09
2019-05-29T10:54:16.868Z,40.93
2019-05-29T10:55:16.587Z,42.70
2019-05-29T10:56:20.788Z,40.93
2019-05-29T10:57:17.521Z,41.09
2019-05-29T10:58:16.612Z,41.09
2019-05-29T10:59:16.520Z,41.09
2019-05-29T11:00:16.724Z,40.93
2019-05-29T11:01:16.527Z,42.86
2019-05-29T11:02:16.634Z,41.09
2019-05-29T11:03:16.455Z,41.73
2019-05-29T11:04:16.553Z,41.41
2019-05-29T11:05:16.547Z,45.12
2019-05-29T11:06:16.458Z,41.25
2019-05-29T11:07:16.428Z,41.41
2019-05-29T11:08:16.501Z,41.73
2019-05-29T11:09:16.475Z,41.73
2019-05-29T11:10:16.497Z,41.41
2019-05-29T11:11:16.491Z,43.83
2019-05-29T11:12:16.489Z,41.09
2019-05-29T11:13:16.434Z,41.25
2019-05-29T11:14:16.517Z,45.92
2019-05-29T11:15:21.390Z,41.73
2019-05-29T11:16:18.453Z,44.63
2019-05-29T11:17:16.450Z,42.70
2019-05-29T11:18:16.443Z,40.93
2019-05-29T11:19:16.378Z,41.09
2019-05-29T11:20:16.404Z,42.54
2019-05-29T11:21:16.417Z,41.41
2019-05-29T11:22:25.795Z,40.93
2019-05-29T11:23:18.360Z,41.41
2019-05-29T11:24:16.329Z,54.46
2019-05-29T11:25:22.495Z,50.27
2019-05-29T11:26:18.376Z,41.57
2019-05-29T11:27:16.387Z,41.25
2019-05-29T11:28:16.381Z,61.23
2019-05-29T11:29:16.353Z,59.94
2019-05-29T11:30:16.277Z,59.94
2019-05-29T11:31:16.242Z,60.42
2019-05-29T11:32:16.334Z,60.91
2019-05-29T11:33:16.300Z,60.26
2019-05-29T11:34:16.245Z,60.26
2019-05-29T11:35:16.264Z,60.42
2019-05-29T11:36:16.309Z,60.10
2019-05-29T11:37:16.311Z,59.14
2019-05-29T11:38:16.251Z,67.68
2019-05-29T11:39:16.301Z,61.39
2019-05-29T11:40:16.265Z,62.52
2019-05-29T11:41:26.012Z,61.55
2019-05-29T11:42:27.263Z,60.59
2019-05-29T11:43:18.287Z,62.04
2019-05-29T11:44:16.287Z,47.86
2019-05-29T11:45:16.279Z,39.96
2019-05-29T11:46:16.192Z,39.64
2019-05-29T11:47:16.217Z,41.89
2019-05-29T11:48:16.264Z,41.41
2019-05-29T11:49:16.226Z,40.93
2019-05-29T11:50:19.797Z,40.93
2019-05-29T11:51:17.165Z,43.99
2019-05-29T11:52:24.071Z,43.02
2019-05-29T11:53:18.196Z,44.31
2019-05-29T11:54:16.143Z,43.67
2019-05-29T11:55:16.181Z,42.38
2019-05-29T11:56:16.169Z,42.06
2019-05-29T11:57:16.087Z,40.93
2019-05-29T11:58:30.659Z,41.41
2019-05-29T11:59:18.133Z,42.86
2019-05-29T12:00:20.465Z,41.25
2019-05-29T12:01:18.082Z,41.09
2019-05-29T12:02:16.139Z,40.93
2019-05-29T12:03:16.099Z,41.89
2019-05-29T12:04:25.453Z,40.93
2019-05-29T12:05:17.986Z,40.93
2019-05-29T12:06:16.105Z,41.25
2019-05-29T12:07:16.125Z,41.73
2019-05-29T12:08:16.123Z,40.93
2019-05-29T12:09:31.518Z,44.31
2019-05-29T12:10:18.234Z,41.89
2019-05-29T12:11:16.081Z,42.54
2019-05-29T12:12:16.063Z,44.47
2019-05-29T12:13:16.040Z,40.77
2019-05-29T12:14:15.973Z,41.25
2019-05-29T12:15:18.639Z,46.73
2019-05-29T12:16:17.064Z,41.57
2019-05-29T12:17:16.069Z,40.61
2019-05-29T12:18:23.718Z,41.25
2019-05-29T12:19:18.000Z,42.54
2019-05-29T12:20:30.684Z,41.57
2019-05-29T12:21:18.015Z,40.28
2019-05-29T12:22:15.982Z,41.41
2019-05-29T12:23:25.712Z,41.41
2019-05-29T12:24:17.949Z,43.67
2019-05-29T12:25:16.026Z,41.89
2019-05-29T12:26:22.286Z,42.86
2019-05-29T12:27:17.952Z,40.93
2019-05-29T12:28:15.992Z,41.41
2019-05-29T12:29:15.991Z,43.18
2019-05-29T12:30:15.931Z,43.18
2019-05-29T12:31:15.965Z,41.41
2019-05-29T12:32:16.033Z,44.15
2019-05-29T12:33:15.956Z,41.41
2019-05-29T12:34:19.133Z,40.77
2019-05-29T12:35:16.986Z,43.67
2019-05-29T12:36:15.880Z,41.25
2019-05-29T12:37:15.804Z,41.09
2019-05-29T12:38:15.975Z,43.67
2019-05-29T12:39:15.851Z,41.57
2019-05-29T12:40:15.862Z,41.25
2019-05-29T12:41:15.854Z,40.61
2019-05-29T12:42:15.981Z,40.77
2019-05-29T12:43:26.768Z,42.54
2019-05-29T12:44:17.841Z,41.57
2019-05-29T12:45:15.932Z,42.70
2019-05-29T12:46:15.878Z,42.86
2019-05-29T12:47:15.893Z,43.83
2019-05-29T12:48:16.524Z,42.38
2019-05-29T12:49:15.804Z,41.41
2019-05-29T12:50:15.835Z,41.41
2019-05-29T12:51:15.840Z,41.09
2019-05-29T12:52:15.760Z,42.22